Estación Meteorológica Peña el Pijo (Robertgarden) [ 02/03/23 03:05:25 CET ]

Fecha Hora Presion(HPa) Temp (°C) Humedad % Rocio (°C) Viento ( m/s) Direccion Lluvia 1Hora(mm) Lluvia 24H(mm) LLuvia Total(mm)
2010-Feb-20 01:01:13 1000.600 1.6 83 -1.0         76.66
2010-Feb-20 02:03:13 1000.800 0.5 85 -1.8         76.66
2010-Feb-20 03:01:15 1000.700 0.4 85 -1.8         76.66
2010-Feb-20 04:01:18 1001.000 1.3 82 -1.5         76.66
2010-Feb-20 05:01:17 1000.600 1.5 79 -1.8         76.66
2010-Feb-20 06:01:13 1001.000 0.9 80 -2.2         76.66
2010-Feb-20 07:01:10 1001.300 1.0 79 -2.3         76.66
2010-Feb-20 08:01:14 1001.600 1.1 76 -2.7         76.66
2010-Feb-20 09:01:13 1002.200 2.4 73 -2.0         76.66
2010-Feb-20 10:01:14 1002.800 4.4 66 -1.4         76.66
2010-Feb-20 11:01:16 1003.200 5.9 58 -1.8 2.0 S     76.66
2010-Feb-20 12:01:12 1003.200 7.4 52 -1.8         76.66
2010-Feb-20 13:01:18 1002.900 8.7 44 -3.0         76.66
2010-Feb-20 14:01:12 1002.500 9.6 43 -2.5 1.4 ESE     76.66
2010-Feb-20 15:01:12 1002.300 8.5 42 -3.8 1.8 S     76.66
2010-Feb-20 16:01:14 1001.700 8.9 39 -4.4         76.66
2010-Feb-20 17:01:14 1001.900 6.5 44 -5.0         76.66
2010-Feb-20 18:01:12 1002.100 5.4 50 -4.2         76.66
2010-Feb-20 19:01:11 1002.200 3.3 54 -5.2         76.66
2010-Feb-20 20:01:13 1002.600 0.9 67 -4.6         76.66
2010-Feb-20 21:01:18 1002.700 -0.7 75 -4.6         76.66
2010-Feb-20 22:01:16 1003.000 -1.1 79 -4.3         76.66
2010-Feb-20 23:01:16 1002.500 -0.9 81 -3.7         76.66

Temperatura Máxima:    Temperatura Mínima:-1°
Presión Máxima:1003.200 Hpa    Presión Mínima:1000.600 Hpa


Volver